createdAt,value
2023-04-27T00:00:45.910Z,8.45
2023-04-27T00:04:47.874Z,8.38
2023-04-27T00:08:50.242Z,10.13
2023-04-27T00:12:51.842Z,9.10
2023-04-27T00:16:53.535Z,7.00
2023-04-27T00:20:55.366Z,9.20
2023-04-27T00:24:57.007Z,6.35
2023-04-27T00:28:58.675Z,8.45
2023-04-27T00:33:00.730Z,8.68
2023-04-27T00:37:02.461Z,7.00
2023-04-27T00:41:05.902Z,10.07
2023-04-27T00:45:08.263Z,6.45
2023-04-27T00:49:10.037Z,10.13
2023-04-27T00:53:11.900Z,10.50
2023-04-27T00:57:13.606Z,8.55
2023-04-27T01:01:15.374Z,10.00
2023-04-27T01:05:17.141Z,5.97
2023-04-27T01:09:19.812Z,8.38
2023-04-27T01:13:22.081Z,8.77
2023-04-27T01:17:24.516Z,7.18
2023-04-27T01:21:27.084Z,8.30
2023-04-27T01:25:28.722Z,8.43
2023-04-27T01:29:30.453Z,8.27
2023-04-27T01:33:32.158Z,6.97
2023-04-27T01:37:34.652Z,9.35
2023-04-27T01:41:37.093Z,8.80
2023-04-27T01:45:38.815Z,8.50
2023-04-27T01:49:40.409Z,10.32
2023-04-27T01:53:42.642Z,7.97
2023-04-27T01:57:44.370Z,13.98
2023-04-27T02:01:46.111Z,8.52
2023-04-27T02:05:48.195Z,9.77
2023-04-27T02:09:49.846Z,6.37
2023-04-27T02:13:51.568Z,7.10
2023-04-27T02:17:53.361Z,8.32
2023-04-27T02:21:54.984Z,7.53
2023-04-27T02:25:56.674Z,7.82
2023-04-27T02:29:58.357Z,8.35
2023-04-27T02:34:00.560Z,12.90
2023-04-27T02:38:02.220Z,6.87
2023-04-27T02:42:04.067Z,7.80
2023-04-27T02:46:06.333Z,6.43
2023-04-27T02:50:08.389Z,7.82
2023-04-27T02:54:10.527Z,6.30
2023-04-27T02:58:13.205Z,8.45
2023-04-27T03:02:14.966Z,8.40
2023-04-27T03:06:16.718Z,10.50
2023-04-27T03:10:18.467Z,10.30
2023-04-27T03:14:20.512Z,10.50
2023-04-27T03:18:22.201Z,7.90
2023-04-27T03:22:23.914Z,10.10
2023-04-27T03:26:26.318Z,9.77
2023-04-27T03:30:27.964Z,12.18
2023-04-27T03:34:29.723Z,13.23
2023-04-27T03:38:31.782Z,16.17
2023-04-27T03:42:33.410Z,13.57
2023-04-27T03:46:35.177Z,15.23
2023-04-27T03:50:37.059Z,19.45
2023-04-27T03:54:38.720Z,13.77
2023-04-27T03:58:40.385Z,15.00
2023-04-27T04:02:42.328Z,13.82
2023-04-27T04:06:44.157Z,13.95
2023-04-27T04:10:45.842Z,15.55
2023-04-27T04:14:48.958Z,15.27
2023-04-27T04:18:51.259Z,22.52
2023-04-27T04:22:52.888Z,15.05
2023-04-27T04:26:54.540Z,18.00
2023-04-27T04:30:56.659Z,18.85
2023-04-27T04:34:59.003Z,15.88
2023-04-27T04:39:00.666Z,17.08
2023-04-27T04:43:02.673Z,14.30
2023-04-27T04:47:05.154Z,18.48
2023-04-27T04:51:07.059Z,16.98
2023-04-27T04:55:09.281Z,21.12
2023-04-27T04:59:11.104Z,16.45
2023-04-27T05:03:12.942Z,16.95
2023-04-27T05:07:15.899Z,13.45
2023-04-27T05:11:18.655Z,17.20
2023-04-27T05:15:20.838Z,18.50
2023-04-27T05:19:22.682Z,18.15
2023-04-27T05:23:24.403Z,12.90
2023-04-27T05:27:26.334Z,15.32
2023-04-27T05:31:28.035Z,19.12
2023-04-27T05:35:30.924Z,16.50
2023-04-27T05:39:32.801Z,15.50
2023-04-27T05:43:35.089Z,14.05
2023-04-27T05:47:37.036Z,13.02
2023-04-27T05:51:38.858Z,18.50
2023-04-27T05:55:40.578Z,15.85
2023-04-27T05:59:43.095Z,18.58
2023-04-27T06:03:45.579Z,13.10
2023-04-27T06:07:48.275Z,15.48
2023-04-27T06:11:49.933Z,16.90
2023-04-27T06:15:51.678Z,11.88
2023-04-27T06:19:53.333Z,12.43
2023-04-27T06:23:55.037Z,13.05
2023-04-27T06:27:57.327Z,13.52
2023-04-27T06:31:59.103Z,13.48
2023-04-27T06:36:01.930Z,13.52
2023-04-27T06:40:04.600Z,14.48
2023-04-27T06:44:06.588Z,14.30
2023-04-27T06:48:08.279Z,14.13
2023-04-27T06:52:09.928Z,10.25
2023-04-27T06:56:12.255Z,10.50
2023-04-27T07:00:14.490Z,9.93
2023-04-27T07:04:16.208Z,9.55
2023-04-27T07:08:17.900Z,8.73
2023-04-27T07:12:19.523Z,12.65
2023-04-27T07:16:21.622Z,15.73
2023-04-27T07:20:23.756Z,11.88
2023-04-27T07:24:25.443Z,8.63
2023-04-27T07:28:29.337Z,11.70
2023-04-27T07:32:31.453Z,11.32
2023-04-27T07:36:33.090Z,10.35
2023-04-27T07:40:34.906Z,9.23
2023-04-27T07:44:36.516Z,11.93
2023-04-27T07:48:39.208Z,9.35
2023-04-27T07:52:41.092Z,9.65
2023-04-27T07:56:43.283Z,9.05
2023-04-27T08:00:45.429Z,5.55
2023-04-27T08:04:48.397Z,7.30
2023-04-27T08:08:50.510Z,9.32
2023-04-27T08:12:52.150Z,8.98
2023-04-27T08:16:53.871Z,10.55
2023-04-27T08:20:55.946Z,6.65
2023-04-27T08:24:57.597Z,6.57
2023-04-27T08:28:59.821Z,9.75
2023-04-27T08:33:01.545Z,6.75
2023-04-27T08:37:04.263Z,7.57
2023-04-27T08:41:20.323Z,8.60
2023-04-27T08:45:24.379Z,9.10
2023-04-27T08:49:26.241Z,7.78
2023-04-27T08:53:27.994Z,10.13
2023-04-27T08:57:29.662Z,8.00
2023-04-27T09:01:32.158Z,7.82
2023-04-27T09:05:34.051Z,6.82
2023-04-27T09:09:36.018Z,9.30
2023-04-27T09:13:39.641Z,6.12
2023-04-27T09:17:41.350Z,9.45
2023-04-27T09:21:43.368Z,7.53
2023-04-27T09:25:45.094Z,7.78
2023-04-27T09:29:46.776Z,6.85
2023-04-27T09:33:56.018Z,8.25
2023-04-27T09:37:58.798Z,5.40
2023-04-27T09:42:00.945Z,7.32
2023-04-27T09:46:04.753Z,6.53
2023-04-27T09:50:08.214Z,7.97
2023-04-27T09:54:13.318Z,8.82
2023-04-27T09:58:33.760Z,9.52
2023-04-27T10:03:08.040Z,6.28
2023-04-27T10:07:14.990Z,6.45
2023-04-27T10:11:19.092Z,5.00
2023-04-27T10:15:26.859Z,7.90
2023-04-27T10:19:28.622Z,7.60
2023-04-27T10:23:30.714Z,7.43
2023-04-27T10:27:39.819Z,6.75
2023-04-27T10:31:47.566Z,5.43
2023-04-27T10:35:57.532Z,7.30
2023-04-27T10:40:07.173Z,7.40
2023-04-27T10:44:26.455Z,8.43
2023-04-27T10:48:30.240Z,8.45
2023-04-27T10:52:32.323Z,8.20
2023-04-27T10:56:34.138Z,8.10
2023-04-27T11:00:41.377Z,7.95
2023-04-27T11:08:45.629Z,7.62
2023-04-27T11:12:47.351Z,7.40
2023-04-27T11:16:49.436Z,6.90
2023-04-27T11:21:05.361Z,7.65
2023-04-27T11:25:07.315Z,6.10
2023-04-27T11:29:14.259Z,8.77
2023-04-27T11:33:16.343Z,9.05
2023-04-27T11:37:26.922Z,9.48
2023-04-27T11:41:36.639Z,10.73
2023-04-27T11:45:42.844Z,9.75
2023-04-27T11:49:48.314Z,9.00
2023-04-27T11:53:51.158Z,8.40
2023-04-27T11:57:58.946Z,8.60
2023-04-27T12:02:00.737Z,6.62
2023-04-27T12:10:07.956Z,7.50
2023-04-27T12:14:09.807Z,5.47
2023-04-27T12:18:11.521Z,8.27
2023-04-27T12:22:13.489Z,7.57
2023-04-27T12:26:15.461Z,7.82
2023-04-27T12:30:17.643Z,8.90
2023-04-27T12:34:19.650Z,11.73
2023-04-27T12:38:22.016Z,9.80
2023-04-27T12:42:24.519Z,8.25
2023-04-27T12:46:26.631Z,9.82
2023-04-27T12:50:28.357Z,7.30
2023-04-27T12:54:29.970Z,10.05
2023-04-27T12:58:31.884Z,13.10
2023-04-27T13:02:34.881Z,10.75
2023-04-27T13:06:36.678Z,7.68
2023-04-27T13:10:38.392Z,8.27
2023-04-27T13:14:41.222Z,9.15
2023-04-27T13:18:51.852Z,8.25
2023-04-27T13:22:53.676Z,11.07
2023-04-27T13:26:55.356Z,6.07
2023-04-27T13:30:58.357Z,8.18
2023-04-27T13:35:01.263Z,8.95
2023-04-27T13:39:03.853Z,9.85
2023-04-27T13:43:05.522Z,7.43
2023-04-27T13:47:07.941Z,11.80
2023-04-27T13:51:10.194Z,10.23
2023-04-27T13:55:11.952Z,9.23
2023-04-27T13:59:13.872Z,9.68
2023-04-27T14:03:16.495Z,8.57
2023-04-27T14:07:19.408Z,7.35
2023-04-27T14:11:21.090Z,7.82
2023-04-27T14:15:22.778Z,7.65
2023-04-27T14:19:25.141Z,8.05
2023-04-27T14:23:26.853Z,11.40
2023-04-27T14:27:28.521Z,9.18
2023-04-27T14:31:30.497Z,9.18
2023-04-27T14:35:34.856Z,7.57
2023-04-27T14:39:36.537Z,11.85
2023-04-27T14:43:38.177Z,8.77
2023-04-27T14:47:39.980Z,9.38
2023-04-27T14:51:43.511Z,8.73
2023-04-27T14:55:45.810Z,8.70
2023-04-27T14:59:47.993Z,8.48
2023-04-27T15:03:50.929Z,9.25
2023-04-27T15:07:52.768Z,11.20
2023-04-27T15:11:54.494Z,10.82
2023-04-27T15:15:57.299Z,10.80
2023-04-27T15:19:59.001Z,9.85
2023-04-27T15:24:00.689Z,9.15
2023-04-27T15:28:03.513Z,12.05
2023-04-27T15:32:05.307Z,10.52
2023-04-27T15:36:07.220Z,9.23
2023-04-27T15:40:09.848Z,9.60
2023-04-27T15:44:11.822Z,10.27
2023-04-27T15:48:13.614Z,7.18
2023-04-27T15:52:15.415Z,7.97
2023-04-27T15:56:17.184Z,7.70
2023-04-27T16:00:21.944Z,8.82
2023-04-27T16:04:23.763Z,7.37
2023-04-27T16:08:27.546Z,7.07
2023-04-27T16:12:29.580Z,8.75
2023-04-27T16:16:32.165Z,7.90
2023-04-27T16:20:36.308Z,17.75
2023-04-27T16:24:38.233Z,10.23
2023-04-27T16:28:39.882Z,7.00
2023-04-27T16:32:41.848Z,9.90
2023-04-27T16:36:44.028Z,9.38
2023-04-27T16:40:45.674Z,10.20
2023-04-27T16:44:47.412Z,9.00
2023-04-27T16:48:49.021Z,9.30
2023-04-27T16:52:50.782Z,7.90
2023-04-27T16:56:54.609Z,8.77
2023-04-27T17:00:57.888Z,10.25
2023-04-27T17:05:00.576Z,7.10
2023-04-27T17:09:02.938Z,8.70
2023-04-27T17:13:05.127Z,10.82
2023-04-27T17:17:07.080Z,9.13
2023-04-27T17:21:09.904Z,9.02
2023-04-27T17:25:11.869Z,6.70
2023-04-27T17:29:15.752Z,11.23
2023-04-27T17:33:17.600Z,8.38
2023-04-27T17:37:19.358Z,11.63
2023-04-27T17:41:21.143Z,6.62
2023-04-27T17:45:24.027Z,8.25
2023-04-27T17:49:25.701Z,8.57
2023-04-27T17:53:27.438Z,7.65
2023-04-27T17:57:29.113Z,10.63
2023-04-27T18:01:30.999Z,8.80
2023-04-27T18:05:32.795Z,8.52
2023-04-27T18:09:34.574Z,10.68
2023-04-27T18:13:36.362Z,9.15
2023-04-27T18:17:38.181Z,8.07
2023-04-27T18:21:40.005Z,7.12
2023-04-27T18:25:41.804Z,7.40
2023-04-27T18:29:43.744Z,7.53
2023-04-27T18:33:46.578Z,9.35
2023-04-27T18:37:49.108Z,7.95
2023-04-27T18:41:50.946Z,8.55
2023-04-27T18:45:52.654Z,10.57
2023-04-27T18:49:54.390Z,8.32
2023-04-27T18:53:56.309Z,8.70
2023-04-27T18:57:57.990Z,8.27
2023-04-27T19:01:59.858Z,8.60
2023-04-27T19:06:01.783Z,7.93
2023-04-27T19:10:03.937Z,9.32
2023-04-27T19:14:05.700Z,7.00
2023-04-27T19:18:11.395Z,8.70
2023-04-27T19:22:13.373Z,8.43
2023-04-27T19:26:15.045Z,10.63
2023-04-27T19:30:16.835Z,7.68
2023-04-27T19:34:18.845Z,8.43
2023-04-27T19:38:22.327Z,8.73
2023-04-27T19:42:24.833Z,9.32
2023-04-27T19:46:26.660Z,8.82
2023-04-27T19:50:28.380Z,8.90
2023-04-27T19:54:30.140Z,11.70
2023-04-27T19:58:31.938Z,8.05
2023-04-27T20:02:33.730Z,9.02
2023-04-27T20:06:35.653Z,9.95
2023-04-27T20:10:37.675Z,9.80
2023-04-27T20:14:39.314Z,6.85
2023-04-27T20:18:43.551Z,8.75
2023-04-27T20:22:45.491Z,9.38
2023-04-27T20:26:47.162Z,7.43
2023-04-27T20:30:48.810Z,11.00
2023-04-27T20:34:50.583Z,7.82
2023-04-27T20:38:52.260Z,8.93
2023-04-27T20:42:53.929Z,14.18
2023-04-27T20:46:55.636Z,10.32
2023-04-27T20:50:57.403Z,8.95
2023-04-27T20:54:59.119Z,10.40
2023-04-27T20:59:00.869Z,11.52
2023-04-27T21:03:02.761Z,9.60
2023-04-27T21:07:04.781Z,8.32
2023-04-27T21:11:06.853Z,12.23
2023-04-27T21:15:09.042Z,8.57
2023-04-27T21:19:14.584Z,10.88
2023-04-27T21:23:16.698Z,11.60
2023-04-27T21:27:18.539Z,11.00
2023-04-27T21:31:20.723Z,9.32
2023-04-27T21:35:22.738Z,8.30
2023-04-27T21:39:24.429Z,8.73
2023-04-27T21:43:26.266Z,9.07
2023-04-27T21:47:28.035Z,8.00
2023-04-27T21:51:29.900Z,8.68
2023-04-27T21:55:31.674Z,7.32
2023-04-27T21:59:33.486Z,8.63
2023-04-27T22:03:35.298Z,6.07
2023-04-27T22:07:38.050Z,6.72
2023-04-27T22:11:40.107Z,9.93
2023-04-27T22:15:41.972Z,8.75
2023-04-27T22:19:43.757Z,9.30
2023-04-27T22:23:46.968Z,10.45
2023-04-27T22:27:48.590Z,8.23
2023-04-27T22:31:50.626Z,7.43
2023-04-27T22:35:52.573Z,10.38
2023-04-27T22:39:54.741Z,9.48
2023-04-27T22:43:56.450Z,9.82
2023-04-27T22:47:58.096Z,10.13
2023-04-27T22:52:00.153Z,10.10
2023-04-27T22:56:01.887Z,10.43
2023-04-27T23:00:08.967Z,11.18
2023-04-27T23:04:10.770Z,7.50
2023-04-27T23:08:13.213Z,10.02
2023-04-27T23:12:15.453Z,11.52
2023-04-27T23:16:17.126Z,8.80
2023-04-27T23:20:27.981Z,11.30
2023-04-27T23:24:30.146Z,8.60
2023-04-27T23:28:31.797Z,10.15
2023-04-27T23:32:34.745Z,9.63
2023-04-27T23:36:36.435Z,9.45
2023-04-27T23:40:38.039Z,8.93
2023-04-27T23:44:39.654Z,8.77
2023-04-27T23:48:42.274Z,12.27
2023-04-27T23:52:44.969Z,9.05
2023-04-27T23:56:47.015Z,11.35
